sensor_id;sensor_type;location;lat;lon;timestamp;P1;durP1;ratioP1;P2;durP2;ratioP2
41925;SDS011;27615;51.826;5.692;2022-09-03T00:00:30;1.45;;;0.60;;
41925;SDS011;27615;51.826;5.692;2022-09-03T00:03:05;1.73;;;0.50;;
41925;SDS011;27615;51.826;5.692;2022-09-03T00:08:37;2.13;;;0.60;;
41925;SDS011;27615;51.826;5.692;2022-09-03T00:14:03;1.58;;;0.70;;
41925;SDS011;27615;51.826;5.692;2022-09-03T00:16:39;1.45;;;0.70;;
41925;SDS011;27615;51.826;5.692;2022-09-03T00:19:06;1.75;;;0.55;;
41925;SDS011;27615;51.826;5.692;2022-09-03T00:21:39;1.50;;;0.60;;
41925;SDS011;27615;51.826;5.692;2022-09-03T00:24:10;1.52;;;0.50;;
41925;SDS011;27615;51.826;5.692;2022-09-03T00:26:38;1.77;;;0.50;;
41925;SDS011;27615;51.826;5.692;2022-09-03T00:29:18;1.25;;;0.50;;
41925;SDS011;27615;51.826;5.692;2022-09-03T00:31:50;2.13;;;0.70;;
41925;SDS011;27615;51.826;5.692;2022-09-03T00:34:21;1.02;;;0.60;;
41925;SDS011;27615;51.826;5.692;2022-09-03T00:36:51;1.05;;;0.77;;
41925;SDS011;27615;51.826;5.692;2022-09-03T00:39:18;0.98;;;0.40;;
41925;SDS011;27615;51.826;5.692;2022-09-03T00:52:43;1.45;;;0.60;;
41925;SDS011;27615;51.826;5.692;2022-09-03T01:00:53;1.25;;;0.50;;
41925;SDS011;27615;51.826;5.692;2022-09-03T01:03:26;1.60;;;0.50;;
41925;SDS011;27615;51.826;5.692;2022-09-03T01:17:15;1.60;;;0.50;;
41925;SDS011;27615;51.826;5.692;2022-09-03T01:25:37;3.30;;;0.53;;
41925;SDS011;27615;51.826;5.692;2022-09-03T01:31:23;4.30;;;0.60;;
41925;SDS011;27615;51.826;5.692;2022-09-03T01:37:10;1.83;;;0.60;;
41925;SDS011;27615;51.826;5.692;2022-09-03T01:39:49;1.48;;;0.70;;
41925;SDS011;27615;51.826;5.692;2022-09-03T01:42:24;1.42;;;0.60;;
41925;SDS011;27615;51.826;5.692;2022-09-03T01:45:10;2.08;;;0.70;;
41925;SDS011;27615;51.826;5.692;2022-09-03T01:50:52;1.30;;;0.60;;
41925;SDS011;27615;51.826;5.692;2022-09-03T01:53:38;0.82;;;0.50;;
41925;SDS011;27615;51.826;5.692;2022-09-03T02:01:45;2.40;;;0.80;;
41925;SDS011;27615;51.826;5.692;2022-09-03T02:04:24;1.58;;;0.55;;
41925;SDS011;27615;51.826;5.692;2022-09-03T02:06:51;1.08;;;0.60;;
41925;SDS011;27615;51.826;5.692;2022-09-03T02:09:18;2.55;;;0.70;;
41925;SDS011;27615;51.826;5.692;2022-09-03T02:11:45;0.82;;;0.50;;
41925;SDS011;27615;51.826;5.692;2022-09-03T02:14:17;1.48;;;1.00;;
41925;SDS011;27615;51.826;5.692;2022-09-03T02:16:43;3.10;;;0.82;;
41925;SDS011;27615;51.826;5.692;2022-09-03T02:19:10;1.20;;;0.75;;
41925;SDS011;27615;51.826;5.692;2022-09-03T02:21:43;1.40;;;0.60;;
41925;SDS011;27615;51.826;5.692;2022-09-03T02:24:13;2.28;;;0.47;;
41925;SDS011;27615;51.826;5.692;2022-09-03T02:26:38;1.30;;;0.70;;
41925;SDS011;27615;51.826;5.692;2022-09-03T02:29:04;2.15;;;0.70;;
41925;SDS011;27615;51.826;5.692;2022-09-03T02:31:30;4.13;;;0.80;;
41925;SDS011;27615;51.826;5.692;2022-09-03T02:33:55;1.45;;;0.90;;
41925;SDS011;27615;51.826;5.692;2022-09-03T02:36:41;2.08;;;0.80;;
41925;SDS011;27615;51.826;5.692;2022-09-03T02:39:09;1.65;;;0.57;;
41925;SDS011;27615;51.826;5.692;2022-09-03T02:41:36;1.88;;;0.77;;
41925;SDS011;27615;51.826;5.692;2022-09-03T02:44:09;1.17;;;0.70;;
41925;SDS011;27615;51.826;5.692;2022-09-03T02:46:51;1.17;;;0.52;;
41925;SDS011;27615;51.826;5.692;2022-09-03T02:49:20;1.77;;;0.88;;
41925;SDS011;27615;51.826;5.692;2022-09-03T02:51:46;1.77;;;0.80;;
41925;SDS011;27615;51.826;5.692;2022-09-03T02:54:12;3.35;;;0.70;;
41925;SDS011;27615;51.826;5.692;2022-09-03T02:56:38;2.45;;;0.70;;
41925;SDS011;27615;51.826;5.692;2022-09-03T02:59:04;2.22;;;0.98;;
41925;SDS011;27615;51.826;5.692;2022-09-03T03:01:31;3.13;;;0.85;;
41925;SDS011;27615;51.826;5.692;2022-09-03T03:03:56;4.10;;;0.88;;
41925;SDS011;27615;51.826;5.692;2022-09-03T03:06:22;2.33;;;0.70;;
41925;SDS011;27615;51.826;5.692;2022-09-03T03:08:48;1.35;;;0.63;;
41925;SDS011;27615;51.826;5.692;2022-09-03T03:11:14;1.20;;;0.73;;
41925;SDS011;27615;51.826;5.692;2022-09-03T03:13:42;2.60;;;0.98;;
41925;SDS011;27615;51.826;5.692;2022-09-03T03:16:09;2.83;;;0.73;;
41925;SDS011;27615;51.826;5.692;2022-09-03T03:18:34;1.88;;;0.70;;
41925;SDS011;27615;51.826;5.692;2022-09-03T03:21:07;2.35;;;0.98;;
41925;SDS011;27615;51.826;5.692;2022-09-03T03:23:34;2.88;;;0.70;;
41925;SDS011;27615;51.826;5.692;2022-09-03T03:26:00;1.92;;;0.75;;
41925;SDS011;27615;51.826;5.692;2022-09-03T03:28:27;2.40;;;0.90;;
41925;SDS011;27615;51.826;5.692;2022-09-03T03:30:56;2.58;;;1.13;;
41925;SDS011;27615;51.826;5.692;2022-09-03T03:33:22;1.70;;;0.60;;
41925;SDS011;27615;51.826;5.692;2022-09-03T03:35:47;1.67;;;0.70;;
41925;SDS011;27615;51.826;5.692;2022-09-03T03:38:13;2.15;;;0.70;;
41925;SDS011;27615;51.826;5.692;2022-09-03T03:40:39;1.75;;;0.50;;
41925;SDS011;27615;51.826;5.692;2022-09-03T03:43:05;1.65;;;0.70;;
41925;SDS011;27615;51.826;5.692;2022-09-03T03:45:30;2.90;;;0.80;;
41925;SDS011;27615;51.826;5.692;2022-09-03T03:47:56;1.65;;;0.70;;
41925;SDS011;27615;51.826;5.692;2022-09-03T03:50:23;1.63;;;1.05;;
41925;SDS011;27615;51.826;5.692;2022-09-03T03:52:49;1.20;;;0.68;;
41925;SDS011;27615;51.826;5.692;2022-09-03T03:55:15;1.73;;;0.80;;
41925;SDS011;27615;51.826;5.692;2022-09-03T03:57:40;2.15;;;0.60;;
41925;SDS011;27615;51.826;5.692;2022-09-03T04:00:06;1.20;;;0.50;;
41925;SDS011;27615;51.826;5.692;2022-09-03T04:02:32;0.95;;;0.50;;
41925;SDS011;27615;51.826;5.692;2022-09-03T04:04:58;1.38;;;0.57;;
41925;SDS011;27615;51.826;5.692;2022-09-03T04:07:24;1.00;;;0.40;;
41925;SDS011;27615;51.826;5.692;2022-09-03T04:09:49;0.90;;;0.60;;
41925;SDS011;27615;51.826;5.692;2022-09-03T04:12:15;1.35;;;0.57;;
41925;SDS011;27615;51.826;5.692;2022-09-03T04:14:41;1.10;;;0.60;;
41925;SDS011;27615;51.826;5.692;2022-09-03T04:17:07;1.05;;;0.50;;
41925;SDS011;27615;51.826;5.692;2022-09-03T04:19:32;1.33;;;0.60;;
41925;SDS011;27615;51.826;5.692;2022-09-03T04:21:58;2.03;;;0.60;;
41925;SDS011;27615;51.826;5.692;2022-09-03T04:24:23;1.30;;;0.50;;
41925;SDS011;27615;51.826;5.692;2022-09-03T04:26:49;3.20;;;0.68;;
41925;SDS011;27615;51.826;5.692;2022-09-03T04:29:14;1.90;;;0.60;;
41925;SDS011;27615;51.826;5.692;2022-09-03T04:31:40;1.63;;;0.70;;
41925;SDS011;27615;51.826;5.692;2022-09-03T04:34:26;1.70;;;0.68;;
41925;SDS011;27615;51.826;5.692;2022-09-03T04:36:51;1.70;;;0.60;;
41925;SDS011;27615;51.826;5.692;2022-09-03T04:39:17;1.17;;;0.50;;
41925;SDS011;27615;51.826;5.692;2022-09-03T04:41:43;0.98;;;0.60;;
41925;SDS011;27615;51.826;5.692;2022-09-03T04:44:09;1.65;;;0.60;;
41925;SDS011;27615;51.826;5.692;2022-09-03T04:46:35;1.30;;;0.60;;
41925;SDS011;27615;51.826;5.692;2022-09-03T04:49:00;1.92;;;0.65;;
41925;SDS011;27615;51.826;5.692;2022-09-03T04:51:26;0.98;;;0.68;;
41925;SDS011;27615;51.826;5.692;2022-09-03T04:53:54;1.35;;;0.60;;
41925;SDS011;27615;51.826;5.692;2022-09-03T04:56:26;1.33;;;0.57;;
41925;SDS011;27615;51.826;5.692;2022-09-03T04:58:57;1.63;;;0.60;;
41925;SDS011;27615;51.826;5.692;2022-09-03T05:01:24;1.10;;;0.55;;
41925;SDS011;27615;51.826;5.692;2022-09-03T05:03:51;1.75;;;0.60;;
41925;SDS011;27615;51.826;5.692;2022-09-03T05:06:17;1.00;;;0.50;;
41925;SDS011;27615;51.826;5.692;2022-09-03T05:08:47;1.13;;;0.52;;
41925;SDS011;27615;51.826;5.692;2022-09-03T05:11:13;0.90;;;0.55;;
41925;SDS011;27615;51.826;5.692;2022-09-03T05:13:39;1.65;;;0.60;;
41925;SDS011;27615;51.826;5.692;2022-09-03T05:16:06;0.90;;;0.60;;
41925;SDS011;27615;51.826;5.692;2022-09-03T05:18:33;1.42;;;0.88;;
41925;SDS011;27615;51.826;5.692;2022-09-03T05:21:03;2.17;;;0.68;;
41925;SDS011;27615;51.826;5.692;2022-09-03T05:23:31;1.83;;;0.60;;
41925;SDS011;27615;51.826;5.692;2022-09-03T05:26:00;1.17;;;0.60;;
41925;SDS011;27615;51.826;5.692;2022-09-03T05:28:29;2.15;;;0.60;;
41925;SDS011;27615;51.826;5.692;2022-09-03T05:30:59;3.55;;;1.02;;
41925;SDS011;27615;51.826;5.692;2022-09-03T05:33:25;1.95;;;0.63;;
41925;SDS011;27615;51.826;5.692;2022-09-03T05:35:52;1.80;;;0.80;;
41925;SDS011;27615;51.826;5.692;2022-09-03T05:38:18;1.00;;;0.80;;
41925;SDS011;27615;51.826;5.692;2022-09-03T05:40:44;1.80;;;0.88;;
41925;SDS011;27615;51.826;5.692;2022-09-03T05:43:10;1.58;;;0.88;;
41925;SDS011;27615;51.826;5.692;2022-09-03T05:45:35;0.93;;;0.70;;
41925;SDS011;27615;51.826;5.692;2022-09-03T05:48:01;1.60;;;0.90;;
41925;SDS011;27615;51.826;5.692;2022-09-03T05:50:27;1.95;;;0.70;;
41925;SDS011;27615;51.826;5.692;2022-09-03T05:52:53;2.28;;;0.98;;
41925;SDS011;27615;51.826;5.692;2022-09-03T05:55:18;1.30;;;0.73;;
41925;SDS011;27615;51.826;5.692;2022-09-03T05:57:44;1.33;;;0.70;;
41925;SDS011;27615;51.826;5.692;2022-09-03T06:00:10;1.17;;;0.82;;
41925;SDS011;27615;51.826;5.692;2022-09-03T06:02:36;2.70;;;0.65;;
41925;SDS011;27615;51.826;5.692;2022-09-03T06:05:01;1.35;;;0.60;;
41925;SDS011;27615;51.826;5.692;2022-09-03T06:07:27;2.03;;;0.73;;
41925;SDS011;27615;51.826;5.692;2022-09-03T06:09:53;2.80;;;0.70;;
41925;SDS011;27615;51.826;5.692;2022-09-03T06:12:18;1.85;;;0.77;;
41925;SDS011;27615;51.826;5.692;2022-09-03T06:14:44;1.35;;;0.73;;
41925;SDS011;27615;51.826;5.692;2022-09-03T06:17:09;1.63;;;0.85;;
41925;SDS011;27615;51.826;5.692;2022-09-03T06:19:36;1.75;;;0.60;;
41925;SDS011;27615;51.826;5.692;2022-09-03T06:22:02;0.88;;;0.52;;
41925;SDS011;27615;51.826;5.692;2022-09-03T06:24:28;1.88;;;0.70;;
41925;SDS011;27615;51.826;5.692;2022-09-03T06:26:54;2.50;;;0.70;;
41925;SDS011;27615;51.826;5.692;2022-09-03T06:29:20;2.67;;;0.50;;
41925;SDS011;27615;51.826;5.692;2022-09-03T06:31:46;1.23;;;0.60;;
41925;SDS011;27615;51.826;5.692;2022-09-03T06:34:15;2.72;;;0.60;;
41925;SDS011;27615;51.826;5.692;2022-09-03T06:36:42;2.35;;;0.70;;
41925;SDS011;27615;51.826;5.692;2022-09-03T06:39:08;1.13;;;0.50;;
41925;SDS011;27615;51.826;5.692;2022-09-03T06:41:33;1.20;;;0.60;;
41925;SDS011;27615;51.826;5.692;2022-09-03T06:44:00;1.10;;;0.63;;
41925;SDS011;27615;51.826;5.692;2022-09-03T06:46:28;0.68;;;0.50;;
41925;SDS011;27615;51.826;5.692;2022-09-03T06:48:55;3.10;;;0.70;;
41925;SDS011;27615;51.826;5.692;2022-09-03T06:51:22;1.67;;;0.60;;
41925;SDS011;27615;51.826;5.692;2022-09-03T06:53:50;1.70;;;0.60;;
41925;SDS011;27615;51.826;5.692;2022-09-03T06:56:19;1.60;;;0.70;;
41925;SDS011;27615;51.826;5.692;2022-09-03T06:58:58;1.95;;;0.73;;
41925;SDS011;27615;51.826;5.692;2022-09-03T07:01:27;1.13;;;0.60;;
41925;SDS011;27615;51.826;5.692;2022-09-03T07:03:55;2.58;;;0.50;;
41925;SDS011;27615;51.826;5.692;2022-09-03T07:06:29;2.45;;;0.70;;
41925;SDS011;27615;51.826;5.692;2022-09-03T07:08:57;1.60;;;0.50;;
41925;SDS011;27615;51.826;5.692;2022-09-03T07:11:25;1.80;;;0.50;;
41925;SDS011;27615;51.826;5.692;2022-09-03T07:13:53;1.88;;;0.68;;
41925;SDS011;27615;51.826;5.692;2022-09-03T07:16:20;1.85;;;0.40;;
41925;SDS011;27615;51.826;5.692;2022-09-03T07:18:48;1.90;;;0.60;;
41925;SDS011;27615;51.826;5.692;2022-09-03T07:21:15;1.10;;;0.60;;
41925;SDS011;27615;51.826;5.692;2022-09-03T07:23:43;3.30;;;0.80;;
41925;SDS011;27615;51.826;5.692;2022-09-03T07:26:10;2.03;;;0.70;;
41925;SDS011;27615;51.826;5.692;2022-09-03T07:28:39;1.10;;;0.47;;
41925;SDS011;27615;51.826;5.692;2022-09-03T07:31:07;1.02;;;0.40;;
41925;SDS011;27615;51.826;5.692;2022-09-03T07:33:35;1.45;;;0.60;;
41925;SDS011;27615;51.826;5.692;2022-09-03T07:36:05;3.42;;;0.73;;
41925;SDS011;27615;51.826;5.692;2022-09-03T07:38:38;1.45;;;0.60;;
41925;SDS011;27615;51.826;5.692;2022-09-03T07:41:04;1.73;;;0.70;;
41925;SDS011;27615;51.826;5.692;2022-09-03T07:43:35;4.20;;;0.80;;
41925;SDS011;27615;51.826;5.692;2022-09-03T07:46:07;1.63;;;0.90;;
41925;SDS011;27615;51.826;5.692;2022-09-03T07:51:05;2.00;;;0.50;;
41925;SDS011;27615;51.826;5.692;2022-09-03T07:53:32;1.33;;;0.50;;
41925;SDS011;27615;51.826;5.692;2022-09-03T07:56:02;1.58;;;0.70;;
41925;SDS011;27615;51.826;5.692;2022-09-03T07:58:29;1.58;;;0.60;;
41925;SDS011;27615;51.826;5.692;2022-09-03T08:00:56;1.42;;;0.60;;
41925;SDS011;27615;51.826;5.692;2022-09-03T08:03:22;6.50;;;0.63;;
41925;SDS011;27615;51.826;5.692;2022-09-03T08:05:48;3.90;;;0.68;;
41925;SDS011;27615;51.826;5.692;2022-09-03T08:08:13;3.03;;;0.70;;
41925;SDS011;27615;51.826;5.692;2022-09-03T08:10:39;2.05;;;0.60;;
41925;SDS011;27615;51.826;5.692;2022-09-03T08:13:05;1.38;;;0.57;;
41925;SDS011;27615;51.826;5.692;2022-09-03T08:15:31;1.42;;;0.50;;
41925;SDS011;27615;51.826;5.692;2022-09-03T08:17:58;1.00;;;0.50;;
41925;SDS011;27615;51.826;5.692;2022-09-03T08:20:25;1.10;;;0.47;;
41925;SDS011;27615;51.826;5.692;2022-09-03T08:22:51;4.00;;;0.80;;
41925;SDS011;27615;51.826;5.692;2022-09-03T08:25:17;2.88;;;0.70;;
41925;SDS011;27615;51.826;5.692;2022-09-03T08:27:43;1.80;;;0.60;;
41925;SDS011;27615;51.826;5.692;2022-09-03T08:30:08;3.75;;;0.70;;
41925;SDS011;27615;51.826;5.692;2022-09-03T08:32:36;4.20;;;0.93;;
41925;SDS011;27615;51.826;5.692;2022-09-03T08:35:04;1.88;;;0.65;;
41925;SDS011;27615;51.826;5.692;2022-09-03T08:37:31;3.20;;;0.73;;
41925;SDS011;27615;51.826;5.692;2022-09-03T08:39:59;3.92;;;0.90;;
41925;SDS011;27615;51.826;5.692;2022-09-03T08:42:32;1.10;;;0.50;;
41925;SDS011;27615;51.826;5.692;2022-09-03T08:45:05;2.42;;;0.60;;
41925;SDS011;27615;51.826;5.692;2022-09-03T08:47:43;2.03;;;0.70;;
41925;SDS011;27615;51.826;5.692;2022-09-03T08:50:21;1.30;;;0.50;;
41925;SDS011;27615;51.826;5.692;2022-09-03T08:53:00;3.35;;;0.65;;
41925;SDS011;27615;51.826;5.692;2022-09-03T08:55:34;1.30;;;0.60;;
41925;SDS011;27615;51.826;5.692;2022-09-03T08:58:16;3.13;;;0.80;;
41925;SDS011;27615;51.826;5.692;2022-09-03T09:11:30;0.68;;;0.40;;
41925;SDS011;27615;51.826;5.692;2022-09-03T09:14:19;2.58;;;0.80;;
41925;SDS011;27615;51.826;5.692;2022-09-03T09:16:58;1.65;;;0.68;;
41925;SDS011;27615;51.826;5.692;2022-09-03T09:22:32;3.03;;;0.80;;
41925;SDS011;27615;51.826;5.692;2022-09-03T09:25:00;3.38;;;1.10;;
41925;SDS011;27615;51.826;5.692;2022-09-03T09:27:29;1.75;;;0.60;;
41925;SDS011;27615;51.826;5.692;2022-09-03T09:29:57;1.02;;;0.50;;
41925;SDS011;27615;51.826;5.692;2022-09-03T09:32:25;3.73;;;0.67;;
41925;SDS011;27615;51.826;5.692;2022-09-03T09:34:51;2.20;;;0.70;;
41925;SDS011;27615;51.826;5.692;2022-09-03T09:37:18;3.13;;;0.90;;
41925;SDS011;27615;51.826;5.692;2022-09-03T09:39:54;1.52;;;0.55;;
41925;SDS011;27615;51.826;5.692;2022-09-03T09:42:22;1.52;;;0.85;;
41925;SDS011;27615;51.826;5.692;2022-09-03T09:44:48;1.88;;;0.60;;
41925;SDS011;27615;51.826;5.692;2022-09-03T09:47:24;2.65;;;0.77;;
41925;SDS011;27615;51.826;5.692;2022-09-03T09:49:53;3.70;;;0.60;;
41925;SDS011;27615;51.826;5.692;2022-09-03T09:52:20;1.17;;;0.60;;
41925;SDS011;27615;51.826;5.692;2022-09-03T09:54:50;2.10;;;0.70;;
41925;SDS011;27615;51.826;5.692;2022-09-03T09:57:23;1.58;;;0.60;;
41925;SDS011;27615;51.826;5.692;2022-09-03T09:59:49;1.67;;;0.80;;
41925;SDS011;27615;51.826;5.692;2022-09-03T10:02:32;1.42;;;0.70;;
41925;SDS011;27615;51.826;5.692;2022-09-03T10:05:12;3.90;;;1.13;;
41925;SDS011;27615;51.826;5.692;2022-09-03T10:10:24;2.00;;;0.68;;
41925;SDS011;27615;51.826;5.692;2022-09-03T10:13:12;1.95;;;0.77;;
41925;SDS011;27615;51.826;5.692;2022-09-03T10:15:50;1.42;;;0.80;;
41925;SDS011;27615;51.826;5.692;2022-09-03T10:21:11;3.05;;;0.90;;
41925;SDS011;27615;51.826;5.692;2022-09-03T10:24:13;2.90;;;0.70;;
41925;SDS011;27615;51.826;5.692;2022-09-03T10:29:20;4.20;;;1.10;;
41925;SDS011;27615;51.826;5.692;2022-09-03T10:37:17;1.90;;;0.80;;
41925;SDS011;27615;51.826;5.692;2022-09-03T10:42:36;3.30;;;0.88;;
41925;SDS011;27615;51.826;5.692;2022-09-03T10:50:56;1.73;;;0.60;;
41925;SDS011;27615;51.826;5.692;2022-09-03T10:53:44;2.25;;;0.90;;
41925;SDS011;27615;51.826;5.692;2022-09-03T11:01:48;1.38;;;0.82;;
41925;SDS011;27615;51.826;5.692;2022-09-03T11:04:23;2.13;;;1.08;;
41925;SDS011;27615;51.826;5.692;2022-09-03T11:07:11;2.35;;;1.02;;
41925;SDS011;27615;51.826;5.692;2022-09-03T11:09:40;2.47;;;0.93;;
41925;SDS011;27615;51.826;5.692;2022-09-03T11:12:15;2.63;;;1.33;;
41925;SDS011;27615;51.826;5.692;2022-09-03T11:14:52;0.82;;;0.52;;
41925;SDS011;27615;51.826;5.692;2022-09-03T11:17:28;2.22;;;0.80;;
41925;SDS011;27615;51.826;5.692;2022-09-03T11:20:20;1.60;;;0.70;;
41925;SDS011;27615;51.826;5.692;2022-09-03T11:22:54;1.10;;;0.73;;
41925;SDS011;27615;51.826;5.692;2022-09-03T11:33:28;2.00;;;0.88;;
41925;SDS011;27615;51.826;5.692;2022-09-03T11:35:57;2.03;;;1.13;;
41925;SDS011;27615;51.826;5.692;2022-09-03T11:38:25;3.78;;;1.33;;
41925;SDS011;27615;51.826;5.692;2022-09-03T11:41:11;2.53;;;0.80;;
41925;SDS011;27615;51.826;5.692;2022-09-03T11:43:46;2.83;;;0.80;;
41925;SDS011;27615;51.826;5.692;2022-09-03T11:46:13;0.95;;;0.70;;
41925;SDS011;27615;51.826;5.692;2022-09-03T11:48:53;1.75;;;0.95;;
41925;SDS011;27615;51.826;5.692;2022-09-03T11:51:29;1.70;;;1.08;;
41925;SDS011;27615;51.826;5.692;2022-09-03T11:56:26;3.00;;;1.27;;
41925;SDS011;27615;51.826;5.692;2022-09-03T11:58:59;3.92;;;1.30;;
41925;SDS011;27615;51.826;5.692;2022-09-03T12:01:49;1.45;;;1.10;;
41925;SDS011;27615;51.826;5.692;2022-09-03T12:04:30;1.67;;;1.00;;
41925;SDS011;27615;51.826;5.692;2022-09-03T12:07:17;1.98;;;1.25;;
41925;SDS011;27615;51.826;5.692;2022-09-03T12:09:58;2.38;;;1.10;;
41925;SDS011;27615;51.826;5.692;2022-09-03T12:18:22;1.58;;;1.20;;
41925;SDS011;27615;51.826;5.692;2022-09-03T12:23:25;1.63;;;1.00;;
41925;SDS011;27615;51.826;5.692;2022-09-03T12:25:52;2.47;;;0.95;;
41925;SDS011;27615;51.826;5.692;2022-09-03T12:28:19;2.03;;;1.00;;
41925;SDS011;27615;51.826;5.692;2022-09-03T12:30:50;3.33;;;1.20;;
41925;SDS011;27615;51.826;5.692;2022-09-03T12:33:17;1.73;;;1.00;;
41925;SDS011;27615;51.826;5.692;2022-09-03T12:35:56;2.57;;;1.00;;
41925;SDS011;27615;51.826;5.692;2022-09-03T12:38:24;5.35;;;1.35;;
41925;SDS011;27615;51.826;5.692;2022-09-03T12:40:50;2.25;;;1.25;;
41925;SDS011;27615;51.826;5.692;2022-09-03T12:43:16;2.30;;;1.20;;
41925;SDS011;27615;51.826;5.692;2022-09-03T12:45:43;2.95;;;1.20;;
41925;SDS011;27615;51.826;5.692;2022-09-03T12:48:13;2.55;;;1.33;;
41925;SDS011;27615;51.826;5.692;2022-09-03T12:50:40;2.47;;;1.00;;
41925;SDS011;27615;51.826;5.692;2022-09-03T12:53:06;2.40;;;0.98;;
41925;SDS011;27615;51.826;5.692;2022-09-03T12:55:35;2.33;;;1.27;;
41925;SDS011;27615;51.826;5.692;2022-09-03T12:58:24;3.42;;;1.05;;
41925;SDS011;27615;51.826;5.692;2022-09-03T13:03:49;1.05;;;0.77;;
41925;SDS011;27615;51.826;5.692;2022-09-03T13:06:19;1.10;;;0.70;;
41925;SDS011;27615;51.826;5.692;2022-09-03T13:08:47;2.53;;;1.20;;
41925;SDS011;27615;51.826;5.692;2022-09-03T13:30:03;2.22;;;0.90;;
41925;SDS011;27615;51.826;5.692;2022-09-03T13:35:58;1.08;;;0.82;;
41925;SDS011;27615;51.826;5.692;2022-09-03T13:40:51;1.88;;;0.93;;
41925;SDS011;27615;51.826;5.692;2022-09-03T13:43:32;1.92;;;1.00;;
41925;SDS011;27615;51.826;5.692;2022-09-03T13:49:03;3.30;;;0.90;;
41925;SDS011;27615;51.826;5.692;2022-09-03T13:52:04;2.45;;;0.80;;
41925;SDS011;27615;51.826;5.692;2022-09-03T13:54:40;1.90;;;0.90;;
41925;SDS011;27615;51.826;5.692;2022-09-03T13:57:25;1.58;;;1.00;;
41925;SDS011;27615;51.826;5.692;2022-09-03T14:00:01;1.08;;;0.80;;
41925;SDS011;27615;51.826;5.692;2022-09-03T14:05:33;2.85;;;1.08;;
41925;SDS011;27615;51.826;5.692;2022-09-03T14:08:27;1.80;;;0.93;;
41925;SDS011;27615;51.826;5.692;2022-09-03T14:11:02;2.30;;;1.23;;
41925;SDS011;27615;51.826;5.692;2022-09-03T14:19:35;3.05;;;1.00;;
41925;SDS011;27615;51.826;5.692;2022-09-03T14:25:10;1.73;;;0.80;;
41925;SDS011;27615;51.826;5.692;2022-09-03T14:27:46;0.95;;;0.60;;
41925;SDS011;27615;51.826;5.692;2022-09-03T14:30:36;1.92;;;0.85;;
41925;SDS011;27615;51.826;5.692;2022-09-03T14:33:16;1.95;;;0.70;;
41925;SDS011;27615;51.826;5.692;2022-09-03T14:38:30;1.10;;;0.80;;
41925;SDS011;27615;51.826;5.692;2022-09-03T14:44:46;1.50;;;0.68;;
41925;SDS011;27615;51.826;5.692;2022-09-03T15:01:22;2.78;;;0.95;;
41925;SDS011;27615;51.826;5.692;2022-09-03T15:06:36;1.83;;;0.73;;
41925;SDS011;27615;51.826;5.692;2022-09-03T15:09:20;2.78;;;0.85;;
41925;SDS011;27615;51.826;5.692;2022-09-03T15:11:55;1.58;;;1.00;;
41925;SDS011;27615;51.826;5.692;2022-09-03T15:20:11;2.42;;;0.93;;
41925;SDS011;27615;51.826;5.692;2022-09-03T15:28:40;1.55;;;0.80;;
41925;SDS011;27615;51.826;5.692;2022-09-03T15:31:40;0.80;;;0.60;;
41925;SDS011;27615;51.826;5.692;2022-09-03T15:37:09;1.38;;;0.77;;
41925;SDS011;27615;51.826;5.692;2022-09-03T15:39:41;1.95;;;0.80;;
41925;SDS011;27615;51.826;5.692;2022-09-03T15:42:10;1.75;;;0.77;;
41925;SDS011;27615;51.826;5.692;2022-09-03T15:44:46;1.73;;;0.80;;
41925;SDS011;27615;51.826;5.692;2022-09-03T15:53:01;2.50;;;0.70;;
41925;SDS011;27615;51.826;5.692;2022-09-03T16:04:19;1.38;;;0.60;;
41925;SDS011;27615;51.826;5.692;2022-09-03T16:06:49;1.33;;;0.70;;
41925;SDS011;27615;51.826;5.692;2022-09-03T16:18:06;0.98;;;0.70;;
41925;SDS011;27615;51.826;5.692;2022-09-03T16:20:51;1.58;;;0.70;;
41925;SDS011;27615;51.826;5.692;2022-09-03T16:26:09;1.95;;;0.70;;
41925;SDS011;27615;51.826;5.692;2022-09-03T16:28:46;1.48;;;0.70;;
41925;SDS011;27615;51.826;5.692;2022-09-03T16:34:33;2.03;;;0.70;;
41925;SDS011;27615;51.826;5.692;2022-09-03T16:40:05;1.30;;;0.80;;
41925;SDS011;27615;51.826;5.692;2022-09-03T16:42:43;2.20;;;0.82;;
41925;SDS011;27615;51.826;5.692;2022-09-03T16:48:11;3.15;;;0.80;;
41925;SDS011;27615;51.826;5.692;2022-09-03T17:07:40;1.85;;;0.90;;
41925;SDS011;27615;51.826;5.692;2022-09-03T17:13:09;1.23;;;0.80;;
41925;SDS011;27615;51.826;5.692;2022-09-03T17:15:48;1.75;;;1.00;;
41925;SDS011;27615;51.826;5.692;2022-09-03T17:26:50;2.30;;;0.52;;
41925;SDS011;27615;51.826;5.692;2022-09-03T17:29:18;1.88;;;0.50;;
41925;SDS011;27615;51.826;5.692;2022-09-03T17:34:57;1.75;;;0.70;;
41925;SDS011;27615;51.826;5.692;2022-09-03T17:40:16;1.08;;;0.63;;
41925;SDS011;27615;51.826;5.692;2022-09-03T17:45:39;4.47;;;0.60;;
41925;SDS011;27615;51.826;5.692;2022-09-03T17:48:15;1.40;;;0.70;;
41925;SDS011;27615;51.826;5.692;2022-09-03T17:50:57;1.27;;;0.70;;
41925;SDS011;27615;51.826;5.692;2022-09-03T17:53:49;1.95;;;1.13;;
41925;SDS011;27615;51.826;5.692;2022-09-03T17:58:52;3.97;;;1.23;;
41925;SDS011;27615;51.826;5.692;2022-09-03T18:01:27;1.55;;;1.00;;
41925;SDS011;27615;51.826;5.692;2022-09-03T18:03:59;1.00;;;0.73;;
41925;SDS011;27615;51.826;5.692;2022-09-03T18:11:46;3.13;;;0.98;;
41925;SDS011;27615;51.826;5.692;2022-09-03T18:16:55;3.33;;;1.10;;
41925;SDS011;27615;51.826;5.692;2022-09-03T18:22:32;1.42;;;0.70;;
41925;SDS011;27615;51.826;5.692;2022-09-03T18:25:25;1.15;;;0.80;;
41925;SDS011;27615;51.826;5.692;2022-09-03T18:28:13;2.25;;;0.80;;
41925;SDS011;27615;51.826;5.692;2022-09-03T18:31:00;0.70;;;0.53;;
41925;SDS011;27615;51.826;5.692;2022-09-03T18:33:44;2.42;;;0.80;;
41925;SDS011;27615;51.826;5.692;2022-09-03T18:36:29;1.60;;;0.80;;
41925;SDS011;27615;51.826;5.692;2022-09-03T18:39:16;1.17;;;0.70;;
41925;SDS011;27615;51.826;5.692;2022-09-03T18:48:32;1.48;;;1.00;;
41925;SDS011;27615;51.826;5.692;2022-09-03T18:51:25;1.98;;;0.98;;
41925;SDS011;27615;51.826;5.692;2022-09-03T18:58:26;2.35;;;1.00;;
41925;SDS011;27615;51.826;5.692;2022-09-03T19:00:58;4.18;;;0.90;;
41925;SDS011;27615;51.826;5.692;2022-09-03T19:07:11;1.80;;;0.90;;
41925;SDS011;27615;51.826;5.692;2022-09-03T19:10:16;1.38;;;0.65;;
41925;SDS011;27615;51.826;5.692;2022-09-03T19:13:09;1.63;;;1.10;;
41925;SDS011;27615;51.826;5.692;2022-09-03T19:16:16;1.77;;;1.00;;
41925;SDS011;27615;51.826;5.692;2022-09-03T19:22:26;2.17;;;1.05;;
41925;SDS011;27615;51.826;5.692;2022-09-03T19:25:17;1.40;;;0.93;;
41925;SDS011;27615;51.826;5.692;2022-09-03T19:31:22;1.95;;;0.93;;
41925;SDS011;27615;51.826;5.692;2022-09-03T19:34:16;1.98;;;1.00;;
41925;SDS011;27615;51.826;5.692;2022-09-03T19:46:21;3.83;;;0.90;;
41925;SDS011;27615;51.826;5.692;2022-09-03T19:55:43;4.03;;;1.38;;
41925;SDS011;27615;51.826;5.692;2022-09-03T19:58:30;2.30;;;0.80;;
41925;SDS011;27615;51.826;5.692;2022-09-03T20:01:17;5.30;;;1.08;;
41925;SDS011;27615;51.826;5.692;2022-09-03T20:04:05;2.28;;;1.20;;
41925;SDS011;27615;51.826;5.692;2022-09-03T20:06:55;1.80;;;1.20;;
41925;SDS011;27615;51.826;5.692;2022-09-03T20:09:42;3.92;;;1.30;;
41925;SDS011;27615;51.826;5.692;2022-09-03T20:12:28;1.90;;;0.95;;
41925;SDS011;27615;51.826;5.692;2022-09-03T20:14:58;3.75;;;1.00;;
41925;SDS011;27615;51.826;5.692;2022-09-03T20:20:33;3.00;;;1.10;;
41925;SDS011;27615;51.826;5.692;2022-09-03T20:44:42;2.60;;;1.30;;
41925;SDS011;27615;51.826;5.692;2022-09-03T20:50:30;3.03;;;1.10;;
41925;SDS011;27615;51.826;5.692;2022-09-03T20:53:22;2.90;;;1.10;;
41925;SDS011;27615;51.826;5.692;2022-09-03T20:58:47;3.53;;;1.10;;
41925;SDS011;27615;51.826;5.692;2022-09-03T21:10:12;1.52;;;1.05;;
41925;SDS011;27615;51.826;5.692;2022-09-03T21:12:48;3.47;;;1.40;;
41925;SDS011;27615;51.826;5.692;2022-09-03T21:15:19;2.00;;;1.50;;
41925;SDS011;27615;51.826;5.692;2022-09-03T21:23:41;3.05;;;1.50;;